createdAt,value
2023-01-17T00:02:01.053Z,9.43
2023-01-17T00:04:47.432Z,8.45
2023-01-17T00:07:34.057Z,8.70
2023-01-17T00:10:04.523Z,9.73
2023-01-17T00:12:31.740Z,9.90
2023-01-17T00:14:59.584Z,10.63
2023-01-17T00:17:28.379Z,11.05
2023-01-17T00:20:14.619Z,11.05
2023-01-17T00:23:02.555Z,12.25
2023-01-17T00:25:53.073Z,13.18
2023-01-17T00:28:20.080Z,12.80
2023-01-17T00:30:46.970Z,11.60
2023-01-17T00:33:13.935Z,13.18
2023-01-17T00:35:41.192Z,12.70
2023-01-17T00:38:10.304Z,13.60
2023-01-17T00:40:38.985Z,12.83
2023-01-17T00:43:24.869Z,12.45
2023-01-17T00:46:11.140Z,13.77
2023-01-17T00:48:56.995Z,12.48
2023-01-17T00:51:43.462Z,12.15
2023-01-17T00:54:29.272Z,11.63
2023-01-17T00:57:14.645Z,11.02
2023-01-17T01:00:00.708Z,11.70
2023-01-17T01:02:46.539Z,10.73
2023-01-17T01:05:33.151Z,11.13
2023-01-17T01:08:19.207Z,9.50
2023-01-17T01:11:06.016Z,10.50
2023-01-17T01:13:52.236Z,11.48
2023-01-17T01:16:38.444Z,11.15
2023-01-17T01:19:24.272Z,10.82
2023-01-17T01:22:09.639Z,10.88
2023-01-17T01:24:54.936Z,11.93
2023-01-17T01:27:40.416Z,11.27
2023-01-17T01:30:26.423Z,9.85
2023-01-17T01:33:11.962Z,7.20
2023-01-17T01:35:39.011Z,7.22
2023-01-17T01:38:05.789Z,7.30
2023-01-17T01:40:32.792Z,6.75
2023-01-17T01:43:00.692Z,7.75
2023-01-17T01:45:31.428Z,7.40
2023-01-17T01:48:06.157Z,6.97
2023-01-17T01:50:36.339Z,7.10
2023-01-17T01:53:06.201Z,7.80
2023-01-17T01:55:41.037Z,7.63
2023-01-17T01:58:15.422Z,7.70
2023-01-17T02:00:42.359Z,7.05
2023-01-17T02:03:18.815Z,8.00
2023-01-17T02:05:46.314Z,8.00
2023-01-17T02:08:16.718Z,7.22
2023-01-17T02:10:46.863Z,7.15
2023-01-17T02:13:16.771Z,7.80
2023-01-17T02:16:04.009Z,6.93
2023-01-17T02:18:59.690Z,7.28
2023-01-17T02:21:36.706Z,5.65
2023-01-17T02:24:09.569Z,5.45
2023-01-17T02:26:51.372Z,5.20
2023-01-17T02:29:48.758Z,4.60
2023-01-17T02:32:27.110Z,4.32
2023-01-17T02:35:10.786Z,4.32
2023-01-17T02:37:57.868Z,4.10
2023-01-17T02:40:38.684Z,4.22
2023-01-17T02:43:10.889Z,3.85
2023-01-17T02:45:38.001Z,4.93
2023-01-17T02:48:08.249Z,4.35
2023-01-17T02:51:00.120Z,4.45
2023-01-17T02:53:42.440Z,3.85
2023-01-17T02:56:28.105Z,4.43
2023-01-17T02:59:04.952Z,5.20
2023-01-17T03:01:43.804Z,4.72
2023-01-17T03:04:25.138Z,4.78
2023-01-17T03:06:56.255Z,4.38
2023-01-17T03:09:25.647Z,4.03
2023-01-17T03:11:53.169Z,4.13
2023-01-17T03:14:19.999Z,4.72
2023-01-17T03:16:47.587Z,4.28
2023-01-17T03:19:16.168Z,3.90
2023-01-17T03:21:43.082Z,4.28
2023-01-17T03:24:09.860Z,3.22
2023-01-17T03:26:36.679Z,4.03
2023-01-17T03:29:03.560Z,4.22
2023-01-17T03:31:30.375Z,4.00
2023-01-17T03:33:57.355Z,4.45
2023-01-17T03:36:24.189Z,4.85
2023-01-17T03:38:50.921Z,4.60
2023-01-17T03:41:17.776Z,3.80
2023-01-17T03:43:44.558Z,4.40
2023-01-17T03:46:25.558Z,4.30
2023-01-17T03:48:52.619Z,3.92
2023-01-17T03:51:19.461Z,4.45
2023-01-17T03:53:50.057Z,5.07
2023-01-17T03:56:16.954Z,4.15
2023-01-17T03:58:43.790Z,4.60
2023-01-17T04:01:11.264Z,4.35
2023-01-17T04:03:38.207Z,4.95
2023-01-17T04:06:05.341Z,4.35
2023-01-17T04:08:32.347Z,5.15
2023-01-17T04:10:59.115Z,4.47
2023-01-17T04:13:25.819Z,4.78
2023-01-17T04:15:52.732Z,5.13
2023-01-17T04:18:20.896Z,4.97
2023-01-17T04:20:47.765Z,5.50
2023-01-17T04:23:14.649Z,5.30
2023-01-17T04:25:41.613Z,4.78
2023-01-17T04:28:08.348Z,4.68
2023-01-17T04:30:35.147Z,5.20
2023-01-17T04:33:02.213Z,4.78
2023-01-17T04:35:33.617Z,5.55
2023-01-17T04:38:00.619Z,6.10
2023-01-17T04:40:27.508Z,5.38
2023-01-17T04:42:54.444Z,5.43
2023-01-17T04:45:21.357Z,5.22
2023-01-17T04:47:48.277Z,5.40
2023-01-17T04:50:15.512Z,5.47
2023-01-17T04:52:42.308Z,5.20
2023-01-17T04:55:09.277Z,5.07
2023-01-17T04:57:36.077Z,5.70
2023-01-17T05:00:03.111Z,5.38
2023-01-17T05:02:29.841Z,5.70
2023-01-17T05:04:56.551Z,5.50
2023-01-17T05:07:23.327Z,4.50
2023-01-17T05:09:50.100Z,4.35
2023-01-17T05:12:16.940Z,4.18
2023-01-17T05:14:43.708Z,4.22
2023-01-17T05:17:11.303Z,3.65
2023-01-17T05:19:38.128Z,3.90
2023-01-17T05:22:15.075Z,4.05
2023-01-17T05:24:46.839Z,4.43
2023-01-17T05:27:14.848Z,4.72
2023-01-17T05:29:41.819Z,4.43
2023-01-17T05:32:08.558Z,7.15
2023-01-17T05:34:35.466Z,6.63
2023-01-17T05:37:02.301Z,8.07
2023-01-17T05:39:30.981Z,7.60
2023-01-17T05:41:58.280Z,7.55
2023-01-17T05:44:25.055Z,4.93
2023-01-17T05:46:51.831Z,4.85
2023-01-17T05:49:18.586Z,5.40
2023-01-17T05:51:45.500Z,5.93
2023-01-17T05:54:12.247Z,6.22
2023-01-17T05:56:39.099Z,4.97
2023-01-17T05:59:05.886Z,5.55
2023-01-17T06:01:32.644Z,7.03
2023-01-17T06:03:59.374Z,6.05
2023-01-17T06:06:26.174Z,6.05
2023-01-17T06:08:52.894Z,5.13
2023-01-17T06:11:19.839Z,6.38
2023-01-17T06:13:48.805Z,6.88
2023-01-17T06:16:15.866Z,5.65
2023-01-17T06:18:42.660Z,5.13
2023-01-17T06:21:10.243Z,7.20
2023-01-17T06:23:37.079Z,7.47
2023-01-17T06:26:04.617Z,6.03
2023-01-17T06:28:31.665Z,5.93
2023-01-17T06:30:59.927Z,5.13
2023-01-17T06:33:27.073Z,5.07
2023-01-17T06:35:53.892Z,4.78
2023-01-17T06:38:20.746Z,4.35
2023-01-17T06:40:47.856Z,4.90
2023-01-17T06:43:14.778Z,6.88
2023-01-17T06:45:41.467Z,5.50
2023-01-17T06:48:08.233Z,5.20
2023-01-17T06:50:35.219Z,5.18
2023-01-17T06:53:04.875Z,4.25
2023-01-17T06:55:33.905Z,4.03
2023-01-17T06:58:02.980Z,5.50
2023-01-17T07:00:31.795Z,5.00
2023-01-17T07:02:58.692Z,5.80
2023-01-17T07:05:25.605Z,5.45
2023-01-17T07:07:53.640Z,5.47
2023-01-17T07:10:20.980Z,6.20
2023-01-17T07:12:47.799Z,6.53
2023-01-17T07:15:14.599Z,6.30
2023-01-17T07:17:41.416Z,6.45
2023-01-17T07:20:08.994Z,6.30
2023-01-17T07:22:37.744Z,6.28
2023-01-17T07:25:05.301Z,6.70
2023-01-17T07:27:33.640Z,6.53
2023-01-17T07:30:00.599Z,5.88
2023-01-17T07:32:27.745Z,5.38
2023-01-17T07:34:57.566Z,5.90
2023-01-17T07:37:26.065Z,5.68
2023-01-17T07:39:53.825Z,5.10
2023-01-17T07:42:23.181Z,5.05
2023-01-17T07:47:17.261Z,3.90
2023-01-17T07:49:44.024Z,4.25
2023-01-17T07:52:10.836Z,4.30
2023-01-17T07:54:37.669Z,4.43
2023-01-17T07:57:04.372Z,4.70
2023-01-17T07:59:33.836Z,4.80
2023-01-17T08:02:00.895Z,4.40
2023-01-17T08:04:34.538Z,4.10
2023-01-17T08:07:02.030Z,4.50
2023-01-17T08:09:28.832Z,4.60
2023-01-17T08:11:55.815Z,4.30
2023-01-17T08:14:22.585Z,3.67
2023-01-17T08:16:49.408Z,4.03
2023-01-17T08:19:17.148Z,4.22
2023-01-17T08:21:43.944Z,4.72
2023-01-17T08:24:14.769Z,4.40
2023-01-17T08:26:41.619Z,3.97
2023-01-17T08:29:09.371Z,3.85
2023-01-17T08:31:36.802Z,3.35
2023-01-17T08:34:03.905Z,3.47
2023-01-17T08:36:31.364Z,3.90
2023-01-17T08:38:58.888Z,4.47
2023-01-17T08:41:27.806Z,4.18
2023-01-17T08:43:54.925Z,3.95
2023-01-17T08:46:22.479Z,2.75
2023-01-17T08:48:53.383Z,3.80
2023-01-17T08:51:20.190Z,2.40
2023-01-17T08:53:48.546Z,2.75
2023-01-17T08:56:15.369Z,2.70
2023-01-17T08:58:42.167Z,2.60
2023-01-17T09:01:09.100Z,2.85
2023-01-17T09:03:38.840Z,1.98
2023-01-17T09:06:12.382Z,2.67
2023-01-17T09:08:40.007Z,3.35
2023-01-17T09:11:12.062Z,3.55
2023-01-17T09:13:39.181Z,3.65
2023-01-17T09:16:06.635Z,4.10
2023-01-17T09:18:34.719Z,3.90
2023-01-17T09:21:11.143Z,3.55
2023-01-17T09:23:38.004Z,4.05
2023-01-17T09:26:04.987Z,3.90
2023-01-17T09:28:39.614Z,4.22
2023-01-17T09:31:10.049Z,4.75
2023-01-17T09:33:38.719Z,3.80
2023-01-17T09:36:05.757Z,3.85
2023-01-17T09:38:33.133Z,5.00
2023-01-17T09:41:02.804Z,4.22
2023-01-17T09:43:44.703Z,4.13
2023-01-17T09:46:25.591Z,4.30
2023-01-17T09:49:02.027Z,4.72
2023-01-17T09:51:28.934Z,3.90
2023-01-17T09:53:55.881Z,3.78
2023-01-17T09:56:46.778Z,3.80
2023-01-17T10:00:03.302Z,3.97
2023-01-17T10:02:51.640Z,3.88
2023-01-17T10:05:50.261Z,3.10
2023-01-17T10:08:32.082Z,3.10
2023-01-17T10:11:16.932Z,3.75
2023-01-17T10:13:59.078Z,3.40
2023-01-17T10:16:55.420Z,3.58
2023-01-17T10:19:29.875Z,3.25
2023-01-17T10:22:02.483Z,3.42
2023-01-17T10:24:54.952Z,1.40
2023-01-17T10:27:26.098Z,1.33
2023-01-17T10:29:54.214Z,1.27
2023-01-17T10:32:25.156Z,1.00
2023-01-17T10:34:53.693Z,0.80
2023-01-17T10:37:40.515Z,0.80
2023-01-17T10:40:19.962Z,0.93
2023-01-17T10:43:01.120Z,0.80
2023-01-17T10:45:29.280Z,0.90
2023-01-17T10:48:15.777Z,0.90
2023-01-17T10:51:05.524Z,1.00
2023-01-17T10:54:02.010Z,1.00
2023-01-17T10:56:29.994Z,0.90
2023-01-17T10:59:17.914Z,1.05
2023-01-17T11:01:45.240Z,1.00
2023-01-17T11:04:21.582Z,0.90
2023-01-17T11:07:11.035Z,0.90
2023-01-17T11:09:53.200Z,1.00
2023-01-17T11:12:30.677Z,0.95
2023-01-17T11:15:02.273Z,0.80
2023-01-17T11:17:30.536Z,0.80
2023-01-17T11:20:08.103Z,0.80
2023-01-17T11:22:35.593Z,0.90
2023-01-17T11:25:02.586Z,0.80
2023-01-17T11:27:32.789Z,1.00
2023-01-17T11:30:16.214Z,0.98
2023-01-17T11:32:55.560Z,1.00
2023-01-17T11:35:25.685Z,1.02
2023-01-17T11:40:35.984Z,0.93
2023-01-17T11:43:05.866Z,0.93
2023-01-17T11:45:34.674Z,0.90
2023-01-17T11:48:13.502Z,0.63
2023-01-17T11:50:57.873Z,0.80
2023-01-17T11:53:34.933Z,0.80
2023-01-17T11:56:18.545Z,0.68
2023-01-17T11:58:46.006Z,0.60
2023-01-17T12:01:43.858Z,0.90
2023-01-17T12:04:24.841Z,0.93
2023-01-17T12:07:03.675Z,0.80
2023-01-17T12:09:58.381Z,1.00
2023-01-17T12:12:43.774Z,1.00
2023-01-17T12:15:43.852Z,1.02
2023-01-17T12:21:17.813Z,1.17
2023-01-17T12:23:53.786Z,1.05
2023-01-17T12:26:45.600Z,1.02
2023-01-17T12:29:24.514Z,1.15
2023-01-17T12:32:19.751Z,1.52
2023-01-17T12:34:50.965Z,1.10
2023-01-17T12:37:29.671Z,1.20
2023-01-17T12:40:13.823Z,1.20
2023-01-17T12:42:48.739Z,1.00
2023-01-17T12:45:32.162Z,1.30
2023-01-17T12:48:05.269Z,1.30
2023-01-17T12:50:53.040Z,1.63
2023-01-17T12:53:50.941Z,1.70
2023-01-17T12:56:34.189Z,1.40
2023-01-17T12:59:15.748Z,0.90
2023-01-17T13:01:46.639Z,1.08
2023-01-17T13:04:25.636Z,0.88
2023-01-17T13:07:00.835Z,1.02
2023-01-17T13:09:35.062Z,1.10
2023-01-17T13:12:10.543Z,1.60
2023-01-17T13:14:37.327Z,1.65
2023-01-17T13:17:23.854Z,1.75
2023-01-17T13:19:58.556Z,1.20
2023-01-17T13:22:27.228Z,2.10
2023-01-17T13:25:15.250Z,2.28
2023-01-17T13:28:03.430Z,2.17
2023-01-17T13:30:43.361Z,1.95
2023-01-17T13:33:25.377Z,2.00
2023-01-17T13:36:16.874Z,1.60
2023-01-17T13:39:18.991Z,2.00
2023-01-17T13:41:51.813Z,2.38
2023-01-17T13:44:21.574Z,1.60
2023-01-17T13:47:00.784Z,1.23
2023-01-17T13:49:31.649Z,1.10
2023-01-17T13:52:09.651Z,1.30
2023-01-17T13:54:44.853Z,1.27
2023-01-17T13:57:27.851Z,1.30
2023-01-17T13:59:57.575Z,1.38
2023-01-17T14:02:33.559Z,1.20
2023-01-17T14:05:23.264Z,1.10
2023-01-17T14:08:05.088Z,1.10
2023-01-17T14:10:53.559Z,1.00
2023-01-17T14:13:40.103Z,1.00
2023-01-17T14:16:27.833Z,1.30
2023-01-17T14:18:55.814Z,1.60
2023-01-17T14:21:26.311Z,1.27
2023-01-17T14:24:04.056Z,1.42
2023-01-17T14:26:36.766Z,1.13
2023-01-17T14:29:42.721Z,1.70
2023-01-17T14:32:19.009Z,1.70
2023-01-17T14:34:48.295Z,1.50
2023-01-17T14:37:49.209Z,1.48
2023-01-17T14:40:18.805Z,1.05
2023-01-17T14:42:47.387Z,1.55
2023-01-17T14:45:22.221Z,1.25
2023-01-17T14:47:51.568Z,0.90
2023-01-17T14:50:18.249Z,1.17
2023-01-17T14:52:45.162Z,1.60
2023-01-17T14:55:17.813Z,1.35
2023-01-17T14:57:56.054Z,1.35
2023-01-17T15:00:25.421Z,1.20
2023-01-17T15:02:53.907Z,1.88
2023-01-17T15:05:23.310Z,1.63
2023-01-17T15:07:53.131Z,1.60
2023-01-17T15:10:27.232Z,1.30
